Cheddleton, United Kingdom
Current Conditions -  °F | °C
As of 4:20 AM on Friday 28 Nov 2014 (Local Time) from EGCC Reporting Station
Scattered Clouds Scattered Clouds  
Wind Chill: 43°   Ceiling: Unl
Heat Index: 46°   Visibility: 6mi
Dew Point: 45°   Wind: 7mph
Humidity: 93%   Direction: 90°E
Pressure: 29.62"   Gusts: NA
Location:  53.07°N, 2.04°W
Report Text: EGCC 280420Z 09006KT 9999 SCT011 08/07 Q1003 NOSIG
Loading
Personal Weather Stations






























Interactive Weather Map New forecast layout! Learn more

10-Day Weather Forecast

Advertisements
Track Severe Weather on mobile